Valley Spring, TX

7:46 AM CST on January 26, 2015 (GMT -0600)
M AND M RANCH | Change Station
CLOSE
Current Station
Personal Weather Station
Location: Valley Spring, TX
Elevation: 1514 ft
Nearby Weather Stations

Elev 1514 ft 30.90 °N, 98.75 °W | Updated 225 days ago

Clear
Clear
43 °F
Feels Like 43 °F
N
3
Wind Variable Wind from WNW
Gusts 3 mph

Today
High -- | Low -- °F
--% Chance of Precip.
Yesterday
High -- | Low -- °F
Precip. -- in
7:30 AM 6:05 PM
Waxing Crescent, 43% visible
Pressure 30.31 in
Visibility 10.0 miles
Clouds Clear
Dew Point 35 °F
Humidity 71%
Rainfall 0.00 in
Snow Depth Not available.
UV 0 out of 12
Pollen 6.30 out of 12
Air Quality Not available.
Flu Activity Not available.
METAR KAQO 261330Z AUTO 00000KT 10SM CLR 04/00 A3031 RMK AO2

More Conditions Fewer Conditions

Pressure 30.31 in
Visibility 10.0 miles
Clouds Clear
Dew Point 35 °F
Humidity 71%
Rainfall 0.00 in
Snow Depth Not available.
UV 0 out of 12
Pollen 6.30 out of 12
Air Quality Not available.
Flu Activity Not available.
METAR KAQO 261330Z AUTO 00000KT 10SM CLR 04/00 A3031 RMK AO2

More Conditions Fewer Conditions

10-Day Weather Forecast

Almanac

Astronomy

Jan. 26, 2015 Rise Set
Actual Time
Civil Twilight
Nautical Twilight
Astronomical Twilight
Moon
Length of Visible Light
Length of Day
Tomorrow will be .
, % of the Moon is Illuminated

Today's Extremes

State Highs State Lows

Community

WunderPhotos

Upload Photos

1,790,200 photos uploaded!

WunderBlogs® & News

Nearby

Air Quality

  Air Quality AQ Index Pollutant
Not available.

Snow Depth

Station Depth Elevation

Earthquake Activity

City Distance Mag. Time & Date
Minimum magnitude displayed is 2.5.

Coastal Water Temperatures

Place Temperature

Nearby Weather Stations